createdAt,value
2022-11-15T00:01:10.216Z,4.75
2022-11-15T00:03:37.173Z,5.75
2022-11-15T00:06:05.525Z,4.93
2022-11-15T00:08:33.999Z,6.15
2022-11-15T00:11:02.801Z,5.80
2022-11-15T00:13:31.098Z,5.35
2022-11-15T00:16:00.048Z,5.47
2022-11-15T00:18:27.339Z,5.28
2022-11-15T00:20:54.094Z,5.68
2022-11-15T00:23:20.865Z,5.00
2022-11-15T00:25:47.665Z,4.93
2022-11-15T00:28:14.428Z,5.10
2022-11-15T00:30:41.168Z,5.65
2022-11-15T00:33:08.175Z,4.85
2022-11-15T00:35:35.949Z,5.72
2022-11-15T00:38:03.818Z,5.43
2022-11-15T00:40:31.601Z,4.65
2022-11-15T00:42:58.538Z,4.13
2022-11-15T00:45:25.954Z,4.25
2022-11-15T00:47:53.380Z,4.53
2022-11-15T00:50:20.485Z,3.88
2022-11-15T00:52:47.260Z,4.15
2022-11-15T00:55:19.061Z,4.80
2022-11-15T00:57:47.162Z,4.55
2022-11-15T01:00:14.412Z,4.57
2022-11-15T01:02:41.156Z,4.30
2022-11-15T01:05:08.889Z,3.85
2022-11-15T01:07:35.699Z,3.40
2022-11-15T01:10:02.492Z,4.10
2022-11-15T01:12:29.315Z,5.32
2022-11-15T01:14:56.072Z,4.85
2022-11-15T01:17:22.827Z,4.78
2022-11-15T01:19:49.654Z,3.78
2022-11-15T01:22:16.968Z,4.20
2022-11-15T01:24:43.743Z,2.80
2022-11-15T01:27:10.568Z,4.22
2022-11-15T01:29:37.541Z,3.80
2022-11-15T01:32:04.595Z,3.30
2022-11-15T01:34:31.409Z,3.50
2022-11-15T01:36:58.284Z,4.00
2022-11-15T01:39:25.022Z,2.92
2022-11-15T01:41:51.784Z,3.22
2022-11-15T01:44:44.577Z,3.25
2022-11-15T01:47:27.247Z,3.90
2022-11-15T01:50:00.843Z,3.40
2022-11-15T01:52:30.235Z,2.80
2022-11-15T01:55:26.295Z,2.40
2022-11-15T01:57:58.494Z,3.40
2022-11-15T02:00:25.302Z,2.78
2022-11-15T02:02:52.302Z,2.38
2022-11-15T02:05:19.288Z,3.95
2022-11-15T02:07:46.513Z,3.30
2022-11-15T02:10:21.579Z,3.15
2022-11-15T02:12:49.437Z,3.88
2022-11-15T02:15:16.741Z,3.63
2022-11-15T02:17:49.424Z,3.55
2022-11-15T02:21:07.269Z,3.53
2022-11-15T02:24:13.275Z,3.97
2022-11-15T02:27:25.764Z,4.35
2022-11-15T02:30:16.565Z,4.55
2022-11-15T02:33:05.200Z,3.28
2022-11-15T02:35:56.771Z,3.97
2022-11-15T02:39:17.816Z,3.00
2022-11-15T02:42:04.580Z,2.95
2022-11-15T02:44:45.080Z,4.13
2022-11-15T02:47:15.113Z,3.45
2022-11-15T02:49:58.388Z,3.65
2022-11-15T02:52:27.238Z,3.78
2022-11-15T02:55:01.437Z,3.50
2022-11-15T02:57:53.929Z,3.53
2022-11-15T03:00:21.404Z,3.20
2022-11-15T03:03:30.788Z,4.40
2022-11-15T03:06:31.003Z,2.78
2022-11-15T03:09:41.910Z,3.15
2022-11-15T03:12:29.008Z,3.42
2022-11-15T03:15:08.097Z,3.42
2022-11-15T03:17:41.297Z,2.80
2022-11-15T03:20:10.034Z,2.88
2022-11-15T03:22:41.925Z,3.35
2022-11-15T03:25:14.435Z,3.10
2022-11-15T03:27:47.385Z,2.83
2022-11-15T03:30:15.048Z,2.53
2022-11-15T03:32:48.762Z,3.40
2022-11-15T03:35:23.850Z,3.60
2022-11-15T03:38:01.021Z,2.72
2022-11-15T03:41:09.493Z,2.40
2022-11-15T03:43:55.075Z,3.00
2022-11-15T03:46:49.482Z,2.55
2022-11-15T03:49:28.360Z,2.67
2022-11-15T03:52:00.026Z,2.63
2022-11-15T03:54:26.897Z,3.00
2022-11-15T03:56:53.732Z,3.33
2022-11-15T03:59:20.531Z,2.92
2022-11-15T04:01:47.275Z,2.70
2022-11-15T04:04:14.140Z,3.15
2022-11-15T04:06:41.025Z,4.68
2022-11-15T04:09:08.039Z,2.92
2022-11-15T04:11:34.749Z,2.72
2022-11-15T04:14:01.572Z,2.65
2022-11-15T04:16:28.341Z,2.58
2022-11-15T04:19:13.597Z,2.67
2022-11-15T04:21:58.639Z,3.55
2022-11-15T04:24:25.376Z,2.47
2022-11-15T04:26:52.166Z,2.95
2022-11-15T04:29:37.020Z,3.42
2022-11-15T04:32:06.855Z,2.10
2022-11-15T04:34:34.154Z,3.45
2022-11-15T04:37:13.125Z,3.17
2022-11-15T04:39:41.665Z,3.20
2022-11-15T04:42:09.198Z,3.00
2022-11-15T04:44:36.118Z,3.63
2022-11-15T04:47:04.490Z,2.20
2022-11-15T04:49:31.310Z,2.60
2022-11-15T04:52:01.100Z,2.45
2022-11-15T04:54:29.908Z,2.38
2022-11-15T04:56:56.748Z,2.65
2022-11-15T04:59:23.536Z,2.17
2022-11-15T05:01:50.292Z,2.75
2022-11-15T05:04:22.874Z,2.85
2022-11-15T05:06:52.435Z,2.70
2022-11-15T05:09:20.878Z,2.35
2022-11-15T05:11:48.204Z,2.25
2022-11-15T05:14:15.460Z,2.83
2022-11-15T05:16:42.921Z,2.65
2022-11-15T05:19:09.848Z,2.30
2022-11-15T05:21:37.150Z,2.80
2022-11-15T05:24:05.021Z,2.42
2022-11-15T05:26:31.828Z,2.83
2022-11-15T05:29:00.401Z,2.30
2022-11-15T05:31:28.041Z,2.72
2022-11-15T05:33:57.596Z,2.15
2022-11-15T05:36:43.926Z,2.70
2022-11-15T05:39:10.753Z,2.88
2022-11-15T05:41:41.971Z,4.10
2022-11-15T05:44:12.821Z,3.60
2022-11-15T05:46:42.424Z,3.25
2022-11-15T05:49:14.376Z,2.15
2022-11-15T05:51:42.944Z,2.33
2022-11-15T05:54:10.099Z,2.45
2022-11-15T05:56:37.021Z,2.25
2022-11-15T05:59:05.380Z,1.90
2022-11-15T06:01:32.186Z,2.13
2022-11-15T06:03:58.952Z,2.40
2022-11-15T06:06:25.715Z,2.65
2022-11-15T06:08:52.418Z,1.77
2022-11-15T06:11:19.139Z,1.83
2022-11-15T06:13:45.839Z,1.80
2022-11-15T06:16:12.644Z,2.75
2022-11-15T06:18:40.045Z,2.15
2022-11-15T06:21:06.833Z,2.60
2022-11-15T06:23:34.987Z,2.45
2022-11-15T06:26:04.060Z,2.63
2022-11-15T06:28:33.076Z,2.17
2022-11-15T06:31:14.271Z,1.85
2022-11-15T06:33:41.716Z,1.90
2022-11-15T06:36:17.728Z,2.10
2022-11-15T06:38:46.085Z,2.33
2022-11-15T06:41:14.363Z,2.03
2022-11-15T06:43:42.347Z,2.30
2022-11-15T06:46:09.751Z,2.20
2022-11-15T06:48:37.361Z,1.60
2022-11-15T06:51:06.110Z,3.65
2022-11-15T06:53:34.317Z,7.03
2022-11-15T06:56:04.529Z,6.75
2022-11-15T06:58:31.948Z,6.65
2022-11-15T07:01:05.589Z,5.25
2022-11-15T07:03:32.846Z,3.90
2022-11-15T07:06:05.704Z,4.47
2022-11-15T07:08:34.086Z,4.22
2022-11-15T07:11:03.501Z,3.75
2022-11-15T07:13:35.482Z,4.43
2022-11-15T07:16:11.373Z,3.47
2022-11-15T07:18:40.460Z,2.63
2022-11-15T07:21:12.004Z,2.65
2022-11-15T07:23:39.565Z,3.03
2022-11-15T07:26:07.698Z,3.20
2022-11-15T07:28:35.180Z,3.58
2022-11-15T07:31:07.873Z,2.67
2022-11-15T07:33:36.044Z,2.75
2022-11-15T07:36:04.923Z,3.22
2022-11-15T07:38:32.344Z,2.33
2022-11-15T07:41:02.282Z,1.85
2022-11-15T07:43:30.862Z,2.00
2022-11-15T07:45:59.631Z,3.33
2022-11-15T07:48:32.168Z,2.47
2022-11-15T07:51:13.777Z,3.25
2022-11-15T07:53:40.975Z,3.75
2022-11-15T07:56:08.687Z,3.30
2022-11-15T07:58:35.584Z,3.15
2022-11-15T08:01:07.406Z,3.53
2022-11-15T08:03:34.879Z,2.88
2022-11-15T08:06:02.229Z,3.05
2022-11-15T08:08:29.084Z,3.47
2022-11-15T08:10:56.064Z,3.28
2022-11-15T08:13:23.009Z,3.17
2022-11-15T08:15:54.802Z,3.13
2022-11-15T08:18:24.286Z,2.42
2022-11-15T08:20:51.049Z,2.92
2022-11-15T08:23:17.817Z,3.13
2022-11-15T08:25:44.687Z,2.55
2022-11-15T08:28:12.217Z,3.03
2022-11-15T08:30:43.151Z,3.15
2022-11-15T08:33:15.015Z,3.08
2022-11-15T08:35:45.010Z,2.50
2022-11-15T08:38:11.785Z,2.95
2022-11-15T08:40:39.075Z,2.63
2022-11-15T08:43:06.093Z,3.60
2022-11-15T08:45:35.252Z,2.65
2022-11-15T08:48:04.248Z,2.40
2022-11-15T08:50:31.182Z,3.05
2022-11-15T08:52:58.015Z,3.05
2022-11-15T08:55:25.114Z,2.88
2022-11-15T08:57:52.023Z,2.63
2022-11-15T09:00:21.037Z,2.65
2022-11-15T09:02:48.087Z,3.15
2022-11-15T09:05:16.699Z,2.92
2022-11-15T09:07:44.053Z,3.47
2022-11-15T09:10:10.853Z,2.63
2022-11-15T09:12:37.637Z,2.22
2022-11-15T09:15:06.620Z,3.13
2022-11-15T09:17:33.444Z,3.35
2022-11-15T09:20:00.376Z,3.15
2022-11-15T09:22:27.255Z,3.28
2022-11-15T09:24:54.040Z,3.35
2022-11-15T09:27:20.797Z,3.47
2022-11-15T09:29:47.550Z,3.08
2022-11-15T09:32:14.378Z,3.63
2022-11-15T09:34:41.101Z,3.20
2022-11-15T09:37:07.876Z,3.08
2022-11-15T09:39:34.677Z,3.42
2022-11-15T09:42:16.390Z,3.97
2022-11-15T09:45:17.994Z,4.22
2022-11-15T09:48:12.635Z,3.75
2022-11-15T09:50:54.565Z,4.68
2022-11-15T09:54:18.625Z,6.18
2022-11-15T09:56:33.529Z,5.65
2022-11-15T09:59:10.356Z,4.85
2022-11-15T10:02:11.565Z,6.55
2022-11-15T10:04:40.549Z,6.90
2022-11-15T10:07:19.789Z,9.30
2022-11-15T10:09:59.905Z,8.70
2022-11-15T10:12:28.377Z,6.00
2022-11-15T10:15:06.859Z,10.85
2022-11-15T10:17:57.839Z,6.22
2022-11-15T10:20:31.348Z,5.55
2022-11-15T10:23:02.357Z,4.15
2022-11-15T10:25:32.962Z,4.40
2022-11-15T10:28:08.001Z,6.03
2022-11-15T10:30:41.682Z,4.53
2022-11-15T10:33:37.341Z,4.88
2022-11-15T10:36:09.972Z,9.18
2022-11-15T10:38:52.080Z,9.18
2022-11-15T10:41:31.736Z,5.95
2022-11-15T10:44:27.217Z,7.97
2022-11-15T10:46:56.623Z,7.68
2022-11-15T10:49:31.130Z,4.13
2022-11-15T10:52:12.793Z,5.90
2022-11-15T10:54:52.819Z,4.78
2022-11-15T10:57:32.635Z,9.50
2022-11-15T11:00:04.594Z,4.05
2022-11-15T11:02:43.060Z,6.47
2022-11-15T11:05:39.637Z,5.47
2022-11-15T11:08:17.026Z,4.35
2022-11-15T11:11:02.688Z,4.18
2022-11-15T11:13:38.675Z,7.80
2022-11-15T11:16:19.879Z,6.15
2022-11-15T11:19:10.597Z,6.15
2022-11-15T11:22:24.581Z,3.70
2022-11-15T11:28:31.568Z,3.58
2022-11-15T11:31:23.692Z,4.00
2022-11-15T11:34:15.036Z,3.75
2022-11-15T11:36:55.349Z,5.07
2022-11-15T11:39:32.904Z,4.97
2022-11-15T11:42:59.261Z,3.30
2022-11-15T11:45:35.099Z,3.28
2022-11-15T11:48:15.902Z,3.78
2022-11-15T11:50:45.804Z,4.18
2022-11-15T11:53:23.947Z,4.28
2022-11-15T11:56:28.092Z,3.95
2022-11-15T11:59:01.842Z,4.60
2022-11-15T12:01:44.054Z,4.70
2022-11-15T12:04:31.123Z,4.07
2022-11-15T12:07:24.722Z,4.82
2022-11-15T12:10:07.062Z,4.53
2022-11-15T12:12:45.853Z,5.10
2022-11-15T12:15:20.761Z,5.15
2022-11-15T12:17:49.489Z,6.05
2022-11-15T12:20:23.434Z,5.32
2022-11-15T12:22:52.996Z,5.20
2022-11-15T12:25:29.828Z,4.88
2022-11-15T12:28:05.029Z,5.78
2022-11-15T12:31:07.128Z,5.70
2022-11-15T12:33:44.657Z,6.22
2022-11-15T12:36:23.371Z,5.22
2022-11-15T12:39:07.688Z,5.10
2022-11-15T12:41:51.556Z,4.15
2022-11-15T12:44:33.131Z,4.47
2022-11-15T12:47:05.084Z,4.30
2022-11-15T12:49:31.718Z,4.47
2022-11-15T12:51:58.326Z,4.50
2022-11-15T12:54:24.969Z,4.82
2022-11-15T12:57:04.092Z,5.03
2022-11-15T12:59:59.785Z,4.50
2022-11-15T13:02:32.559Z,3.75
2022-11-15T13:05:17.372Z,4.93
2022-11-15T13:07:43.985Z,4.13
2022-11-15T13:10:13.698Z,4.30
2022-11-15T13:12:46.673Z,5.93
2022-11-15T13:15:13.324Z,4.47
2022-11-15T13:17:55.240Z,4.57
2022-11-15T13:20:22.283Z,4.32
2022-11-15T13:23:03.382Z,4.97
2022-11-15T13:26:11.544Z,4.50
2022-11-15T13:28:48.568Z,4.32
2022-11-15T13:31:35.728Z,4.53
2022-11-15T13:34:44.158Z,4.32
2022-11-15T13:37:03.250Z,3.67
2022-11-15T13:39:37.581Z,4.50
2022-11-15T13:42:05.252Z,4.65
2022-11-15T13:44:34.181Z,4.53
2022-11-15T13:47:20.308Z,4.95
2022-11-15T13:49:47.059Z,3.75
2022-11-15T13:52:17.509Z,4.88
2022-11-15T13:55:09.428Z,4.57
2022-11-15T13:57:44.390Z,4.57
2022-11-15T14:00:44.320Z,4.10
2022-11-15T14:03:19.797Z,4.43
2022-11-15T14:06:23.822Z,4.25
2022-11-15T14:09:08.484Z,4.85
2022-11-15T14:11:35.640Z,4.60
2022-11-15T14:14:08.284Z,4.13
2022-11-15T14:16:47.332Z,4.32
2022-11-15T14:19:36.240Z,5.25
2022-11-15T14:22:14.378Z,4.07
2022-11-15T14:24:44.272Z,5.75
2022-11-15T14:27:18.321Z,4.85
2022-11-15T14:29:45.088Z,4.15
2022-11-15T14:32:27.090Z,7.40
2022-11-15T14:35:02.397Z,6.22
2022-11-15T14:37:35.096Z,5.50
2022-11-15T14:40:07.169Z,4.60
2022-11-15T14:42:34.010Z,4.20
2022-11-15T14:45:00.820Z,3.97
2022-11-15T14:47:27.543Z,4.20
2022-11-15T14:49:54.286Z,4.63
2022-11-15T14:52:32.703Z,6.10
2022-11-15T14:55:02.376Z,5.13
2022-11-15T14:57:30.573Z,4.60
2022-11-15T14:59:57.915Z,4.82
2022-11-15T15:02:27.878Z,4.18
2022-11-15T15:04:55.085Z,4.25
2022-11-15T15:07:22.247Z,4.43
2022-11-15T15:09:49.032Z,5.03
2022-11-15T15:12:22.482Z,4.88
2022-11-15T15:14:50.957Z,4.20
2022-11-15T15:17:18.288Z,4.28
2022-11-15T15:19:45.137Z,8.25
2022-11-15T15:22:26.450Z,17.00
2022-11-15T15:24:53.168Z,11.63
2022-11-15T15:27:19.897Z,9.90
2022-11-15T15:29:46.659Z,6.72
2022-11-15T15:32:14.527Z,4.57
2022-11-15T15:34:41.329Z,5.40
2022-11-15T15:37:28.335Z,3.97
2022-11-15T15:39:57.737Z,4.70
2022-11-15T15:42:25.156Z,5.13
2022-11-15T15:44:52.609Z,4.10
2022-11-15T15:47:23.645Z,4.80
2022-11-15T15:49:52.108Z,4.78
2022-11-15T15:52:19.387Z,4.05
2022-11-15T15:54:46.374Z,6.05
2022-11-15T15:57:16.155Z,5.32
2022-11-15T15:59:43.293Z,5.13
2022-11-15T16:02:13.487Z,5.60
2022-11-15T16:04:40.907Z,8.82
2022-11-15T16:07:21.000Z,10.48
2022-11-15T16:10:03.258Z,8.68
2022-11-15T16:12:32.499Z,6.10
2022-11-15T16:14:59.999Z,4.57
2022-11-15T16:17:34.497Z,4.45
2022-11-15T16:20:01.920Z,4.32
2022-11-15T16:22:30.392Z,3.75
2022-11-15T16:24:57.845Z,4.25
2022-11-15T16:27:25.065Z,4.43
2022-11-15T16:29:51.792Z,4.43
2022-11-15T16:32:18.555Z,5.25
2022-11-15T16:34:48.971Z,4.13
2022-11-15T16:37:25.563Z,4.22
2022-11-15T16:39:55.962Z,3.53
2022-11-15T16:42:25.199Z,3.60
2022-11-15T16:44:51.933Z,3.33
2022-11-15T16:47:20.468Z,3.22
2022-11-15T16:49:47.733Z,2.95
2022-11-15T16:52:20.144Z,3.13
2022-11-15T16:54:48.049Z,3.60
2022-11-15T16:57:14.801Z,3.35
2022-11-15T16:59:41.526Z,3.40
2022-11-15T17:02:13.376Z,5.28
2022-11-15T17:04:40.275Z,5.28
2022-11-15T17:07:07.215Z,4.75
2022-11-15T17:09:34.517Z,3.90
2022-11-15T17:12:01.329Z,5.38
2022-11-15T17:14:28.068Z,5.18
2022-11-15T17:16:55.470Z,4.13
2022-11-15T17:19:22.333Z,3.85
2022-11-15T17:21:52.196Z,4.63
2022-11-15T17:24:21.064Z,6.03
2022-11-15T17:26:48.031Z,5.65
2022-11-15T17:29:14.886Z,5.82
2022-11-15T17:31:41.596Z,5.95
2022-11-15T17:34:08.432Z,5.68
2022-11-15T17:36:35.677Z,6.38
2022-11-15T17:39:04.001Z,7.82
2022-11-15T17:41:30.973Z,8.45
2022-11-15T17:44:00.229Z,6.03
2022-11-15T17:46:29.182Z,6.63
2022-11-15T17:48:57.272Z,10.63
2022-11-15T17:51:24.345Z,7.70
2022-11-15T17:53:51.830Z,6.25
2022-11-15T17:56:21.907Z,5.38
2022-11-15T17:58:51.575Z,5.25
2022-11-15T18:01:21.297Z,6.53
2022-11-15T18:03:48.820Z,4.75
2022-11-15T18:06:17.165Z,4.30
2022-11-15T18:08:46.641Z,5.45
2022-11-15T18:11:21.944Z,5.85
2022-11-15T18:13:55.858Z,5.40
2022-11-15T18:16:26.234Z,5.82
2022-11-15T18:18:54.857Z,5.28
2022-11-15T18:21:25.948Z,5.47
2022-11-15T18:23:58.695Z,5.50
2022-11-15T18:26:28.539Z,5.43
2022-11-15T18:29:04.256Z,5.28
2022-11-15T18:31:31.889Z,4.30
2022-11-15T18:34:00.792Z,5.43
2022-11-15T18:36:30.346Z,4.30
2022-11-15T18:39:02.402Z,3.83
2022-11-15T18:41:29.851Z,3.83
2022-11-15T18:44:01.724Z,4.63
2022-11-15T18:46:31.701Z,4.20
2022-11-15T18:49:00.764Z,4.78
2022-11-15T18:51:30.371Z,4.72
2022-11-15T18:54:02.160Z,4.80
2022-11-15T18:56:31.260Z,4.75
2022-11-15T18:59:01.447Z,9.10
2022-11-15T19:01:34.031Z,5.60
2022-11-15T19:04:07.424Z,4.75
2022-11-15T19:06:39.313Z,4.88
2022-11-15T19:09:06.243Z,4.50
2022-11-15T19:11:35.981Z,4.82
2022-11-15T19:14:06.443Z,6.82
2022-11-15T19:16:37.108Z,4.93
2022-11-15T19:19:08.591Z,5.05
2022-11-15T19:21:35.388Z,4.75
2022-11-15T19:24:02.302Z,5.15
2022-11-15T19:26:30.005Z,4.05
2022-11-15T19:29:01.237Z,4.47
2022-11-15T19:31:30.475Z,5.22
2022-11-15T19:34:00.489Z,6.10
2022-11-15T19:36:39.612Z,7.82
2022-11-15T19:39:10.319Z,5.32
2022-11-15T19:41:39.684Z,5.78
2022-11-15T19:44:07.237Z,5.80
2022-11-15T19:46:34.409Z,13.38
2022-11-15T19:49:01.618Z,7.90
2022-11-15T19:51:31.175Z,6.80
2022-11-15T19:54:06.651Z,4.78
2022-11-15T19:56:34.766Z,4.78
2022-11-15T19:59:02.609Z,4.57
2022-11-15T20:01:32.967Z,5.45
2022-11-15T20:04:00.423Z,5.18
2022-11-15T20:06:30.787Z,7.60
2022-11-15T20:08:58.371Z,4.78
2022-11-15T20:11:25.955Z,4.68
2022-11-15T20:14:01.911Z,5.95
2022-11-15T20:16:29.444Z,17.23
2022-11-15T20:18:56.257Z,14.02
2022-11-15T20:21:24.056Z,7.85
2022-11-15T20:23:51.855Z,7.85
2022-11-15T20:26:21.862Z,9.35
2022-11-15T20:28:49.057Z,9.75
2022-11-15T20:31:17.342Z,6.38
2022-11-15T20:33:44.482Z,4.32
2022-11-15T20:36:14.553Z,7.65
2022-11-15T20:38:41.766Z,5.88
2022-11-15T20:41:11.441Z,6.28
2022-11-15T20:43:38.253Z,6.05
2022-11-15T20:46:05.266Z,6.40
2022-11-15T20:48:32.548Z,5.15
2022-11-15T20:51:12.749Z,5.20
2022-11-15T20:53:41.625Z,5.03
2022-11-15T20:56:13.159Z,5.85
2022-11-15T20:58:40.571Z,5.70
2022-11-15T21:01:10.684Z,5.88
2022-11-15T21:03:37.943Z,5.63
2022-11-15T21:06:05.107Z,4.82
2022-11-15T21:08:50.893Z,4.40
2022-11-15T21:11:36.475Z,5.25
2022-11-15T21:14:08.938Z,8.40
2022-11-15T21:16:36.930Z,6.18
2022-11-15T21:19:03.837Z,4.75
2022-11-15T21:21:30.611Z,5.40
2022-11-15T21:23:57.387Z,5.50
2022-11-15T21:26:24.228Z,4.85
2022-11-15T21:28:50.956Z,4.32
2022-11-15T21:31:17.768Z,5.47
2022-11-15T21:33:44.468Z,5.78
2022-11-15T21:36:11.216Z,4.68
2022-11-15T21:38:38.453Z,4.82
2022-11-15T21:41:05.838Z,6.45
2022-11-15T21:43:33.949Z,4.78
2022-11-15T21:46:03.999Z,4.85
2022-11-15T21:48:34.126Z,4.60
2022-11-15T21:51:05.297Z,4.82
2022-11-15T21:53:32.754Z,4.78
2022-11-15T21:56:01.077Z,5.70
2022-11-15T21:58:28.900Z,5.50
2022-11-15T22:01:14.797Z,5.05
2022-11-15T22:03:44.019Z,4.82
2022-11-15T22:06:17.235Z,4.95
2022-11-15T22:08:46.214Z,5.35
2022-11-15T22:11:14.533Z,5.70
2022-11-15T22:13:41.364Z,4.45
2022-11-15T22:16:09.269Z,4.70
2022-11-15T22:18:36.831Z,6.40
2022-11-15T22:21:12.505Z,5.57
2022-11-15T22:23:40.216Z,4.90
2022-11-15T22:26:08.713Z,5.03
2022-11-15T22:28:36.086Z,5.13
2022-11-15T22:31:03.284Z,4.57
2022-11-15T22:33:32.906Z,5.50
2022-11-15T22:36:00.528Z,4.47
2022-11-15T22:38:28.462Z,4.55
2022-11-15T22:40:56.016Z,5.28
2022-11-15T22:43:24.909Z,4.75
2022-11-15T22:45:51.565Z,5.20
2022-11-15T22:48:24.293Z,5.05
2022-11-15T22:50:51.525Z,4.90
2022-11-15T22:53:19.371Z,4.72
2022-11-15T22:56:00.560Z,5.18
2022-11-15T22:58:30.904Z,4.50
2022-11-15T23:01:02.577Z,4.25
2022-11-15T23:03:30.581Z,6.13
2022-11-15T23:06:06.309Z,5.15
2022-11-15T23:08:33.346Z,4.00
2022-11-15T23:11:23.059Z,4.88
2022-11-15T23:13:51.995Z,5.55
2022-11-15T23:16:34.807Z,5.68
2022-11-15T23:19:09.341Z,5.18
2022-11-15T23:22:01.168Z,4.70
2022-11-15T23:24:28.549Z,5.05
2022-11-15T23:27:00.632Z,4.97
2022-11-15T23:29:29.031Z,4.93
2022-11-15T23:32:15.551Z,6.63
2022-11-15T23:34:45.033Z,5.32
2022-11-15T23:37:14.491Z,5.65
2022-11-15T23:39:41.264Z,5.68
2022-11-15T23:42:09.616Z,5.65
2022-11-15T23:44:37.010Z,5.47
2022-11-15T23:47:03.875Z,5.63
2022-11-15T23:49:30.659Z,5.50
2022-11-15T23:51:57.506Z,5.10
2022-11-15T23:54:24.298Z,5.50
2022-11-15T23:56:51.052Z,5.53
2022-11-15T23:59:18.355Z,4.75
